Time;durP1;ratioP1;P1;durP2;ratioP2;P2;SDS_P1;SDS_P2;PMS_P1;PMS_P2;Temp;Humidity;BMP_temperature;BMP_pressure;BME280_temperature;BME280_humidity;BME280_pressure;Samples;Min_cycle;Max_cycle;Signal;HPM_P1;HPM_P2
2023/08/13 00:02:02;;;;;;;6.38;5.78;;;20.30;99.90;;;;;;9990457;29;20235;-88
2023/08/13 00:07:05;;;;;;;8.20;6.38;;;20.30;99.90;;;;;;9991275;29;20278;-88
2023/08/13 00:12:08;;;;;;;7.13;6.43;;;20.20;99.90;;;;;;10004377;29;20246;-88
2023/08/13 00:17:10;;;;;;;6.97;6.28;;;20.10;99.90;;;;;;10007002;29;20243;-88
2023/08/13 00:22:14;;;;;;;8.80;6.30;;;19.90;99.90;;;;;;10008406;29;20238;-89
2023/08/13 00:27:16;;;;;;;8.38;5.53;;;19.80;99.90;;;;;;10015214;29;20678;-88
2023/08/13 00:32:19;;;;;;;6.60;6.00;;;19.80;99.90;;;;;;9998709;29;20243;-89
2023/08/13 00:37:21;;;;;;;9.20;5.85;;;19.70;99.90;;;;;;9986828;29;20283;-89
2023/08/13 00:42:24;;;;;;;7.85;7.05;;;19.60;99.90;;;;;;10004479;29;20253;-89
2023/08/13 00:47:28;;;;;;;7.57;6.75;;;19.60;99.90;;;;;;9992485;29;20262;-88
2023/08/13 00:52:32;;;;;;;5.90;5.30;;;19.40;99.90;;;;;;9992849;29;20239;-88
2023/08/13 00:57:34;;;;;;;7.40;6.70;;;19.30;99.90;;;;;;10001625;29;20267;-88
2023/08/13 01:02:38;;;;;;;19.10;6.70;;;19.20;99.90;;;;;;9999671;29;20366;-89
2023/08/13 01:07:52;;;;;;;8.85;6.95;;;19.10;99.90;;;;;;10008727;29;20278;-89
2023/08/13 01:13:22;;;;;;;9.45;6.53;;;19.00;99.90;;;;;;10003263;29;20241;-88
2023/08/13 01:18:26;;;;;;;6.53;5.97;;;18.80;99.90;;;;;;9972636;29;20238;-89
2023/08/13 01:23:29;;;;;;;6.70;5.78;;;18.70;99.90;;;;;;9995161;29;20243;-89
2023/08/13 01:28:47;;;;;;;8.13;6.70;;;18.70;99.90;;;;;;9992023;29;20649;-89
2023/08/13 01:33:52;;;;;;;9.50;7.55;;;18.60;99.90;;;;;;9990260;29;20286;-89
2023/08/13 01:38:58;;;;;;;7.57;5.78;;;18.50;99.90;;;;;;9989994;29;20974;-89
2023/08/13 01:44:01;;;;;;;7.00;5.57;;;18.30;99.90;;;;;;9992600;29;20295;-90
2023/08/13 01:49:03;;;;;;;8.90;7.45;;;18.30;99.90;;;;;;9989649;29;20319;-87
2023/08/13 01:54:06;;;;;;;7.65;7.03;;;18.30;99.90;;;;;;9992350;29;20243;-89
2023/08/13 01:59:09;;;;;;;6.70;6.10;;;18.40;99.90;;;;;;9982928;29;20245;-89
2023/08/13 02:04:11;;;;;;;7.38;6.43;;;18.70;99.90;;;;;;10008905;29;20628;-88
2023/08/13 02:09:14;;;;;;;6.57;5.97;;;18.90;99.90;;;;;;10009130;29;20278;-89
2023/08/13 02:14:16;;;;;;;7.63;6.88;;;19.00;99.90;;;;;;9980489;29;20250;-89
2023/08/13 02:19:19;;;;;;;6.57;6.00;;;19.20;99.90;;;;;;9980397;29;20254;-90
2023/08/13 02:24:22;;;;;;;5.50;5.00;;;19.40;99.90;;;;;;10007014;29;20245;-89
2023/08/13 02:29:24;;;;;;;6.57;5.93;;;19.50;99.90;;;;;;9984269;29;20327;-89
2023/08/13 02:34:32;;;;;;;6.82;6.20;;;19.60;99.90;;;;;;9985126;29;20306;-89
2023/08/13 02:39:35;;;;;;;5.82;5.22;;;19.70;99.90;;;;;;9991935;29;20238;-89
2023/08/13 02:44:38;;;;;;;5.55;5.10;;;19.70;99.90;;;;;;9999891;29;20254;-90
2023/08/13 02:49:41;;;;;;;6.80;6.07;;;19.80;99.90;;;;;;10004993;29;20731;-89
2023/08/13 02:54:43;;;;;;;6.43;5.75;;;19.80;99.90;;;;;;10012814;29;20295;-88
2023/08/13 02:59:46;;;;;;;7.25;6.63;;;19.90;99.90;;;;;;10000832;29;20648;-89
2023/08/13 03:04:48;;;;;;;7.00;5.25;;;20.00;99.90;;;;;;9987879;29;20299;-89
2023/08/13 03:09:51;;;;;;;5.65;5.07;;;20.10;99.90;;;;;;9990870;29;20263;-89
2023/08/13 03:14:55;;;;;;;6.50;5.90;;;20.10;99.90;;;;;;9992567;29;20242;-89
2023/08/13 03:19:59;;;;;;;7.60;6.60;;;20.20;99.90;;;;;;10009789;29;20276;-90
2023/08/13 03:25:01;;;;;;;6.60;6.00;;;20.30;99.90;;;;;;10014477;29;20303;-89
2023/08/13 03:30:05;;;;;;;8.48;6.20;;;20.40;99.90;;;;;;10008792;29;20288;-89
2023/08/13 03:35:08;;;;;;;5.95;5.45;;;20.40;99.90;;;;;;9991089;29;20283;-89
2023/08/13 03:40:11;;;;;;;8.55;7.68;;;20.40;99.90;;;;;;10017072;29;20749;-88
2023/08/13 03:45:14;;;;;;;13.43;7.18;;;20.40;99.90;;;;;;10016991;29;20249;-88
2023/08/13 03:50:17;;;;;;;7.90;7.25;;;20.50;99.90;;;;;;9996857;29;20345;-89
2023/08/13 03:55:20;;;;;;;5.90;5.03;;;20.40;99.90;;;;;;10006751;29;20690;-88
2023/08/13 04:00:23;;;;;;;7.03;6.20;;;20.40;99.90;;;;;;9984413;29;20298;-89
2023/08/13 04:05:29;;;;;;;6.03;5.55;;;20.50;99.90;;;;;;10007416;29;20756;-89
2023/08/13 04:10:32;;;;;;;7.20;6.60;;;20.50;99.90;;;;;;10012961;29;20259;-90
2023/08/13 04:15:35;;;;;;;5.97;5.47;;;20.50;99.90;;;;;;10003168;29;20318;-89
2023/08/13 04:20:39;;;;;;;6.47;5.88;;;20.60;99.90;;;;;;9980727;29;20276;-89
2023/08/13 04:25:42;;;;;;;7.50;5.40;;;20.70;99.90;;;;;;9995182;29;20304;-89
2023/08/13 04:30:45;;;;;;;7.95;7.25;;;20.80;99.90;;;;;;10003739;29;20326;-89
2023/08/13 04:35:53;;;;;;;6.15;5.65;;;20.80;99.90;;;;;;9989568;29;20263;-89
2023/08/13 04:40:58;;;;;;;6.43;5.90;;;20.70;99.90;;;;;;9994189;29;20243;-88
2023/08/13 04:46:02;;;;;;;6.80;6.03;;;20.70;99.90;;;;;;9997865;29;20351;-89
2023/08/13 04:51:05;;;;;;;6.82;6.22;;;20.70;99.90;;;;;;10011669;29;20262;-88
2023/08/13 04:56:08;;;;;;;6.82;6.22;;;20.60;99.90;;;;;;10003754;29;20242;-89
2023/08/13 05:01:11;;;;;;;7.40;6.75;;;20.70;99.90;;;;;;10014370;29;20306;-88
2023/08/13 05:06:16;;;;;;;7.65;6.97;;;20.60;99.90;;;;;;9981420;29;20266;-88
2023/08/13 05:11:18;;;;;;;8.98;5.50;;;20.60;99.90;;;;;;9993224;29;20266;-87
2023/08/13 05:16:22;;;;;;;6.25;5.75;;;20.70;99.90;;;;;;9989816;29;20749;-88
2023/08/13 05:21:27;;;;;;;7.80;7.03;;;20.70;99.90;;;;;;10004498;29;20373;-88
2023/08/13 05:26:29;;;;;;;6.75;6.13;;;20.70;99.90;;;;;;9989967;29;20250;-89
2023/08/13 05:31:32;;;;;;;5.50;5.00;;;20.80;99.90;;;;;;9987783;29;20253;-89
2023/08/13 05:36:36;;;;;;;5.82;5.35;;;20.90;99.90;;;;;;10005743;29;20328;-89
2023/08/13 05:41:39;;;;;;;6.05;5.45;;;20.90;99.90;;;;;;10013018;29;20318;-89
2023/08/13 05:46:42;;;;;;;7.47;6.78;;;21.00;99.90;;;;;;9995896;29;20239;-88
2023/08/13 05:51:48;;;;;;;6.53;5.75;;;21.10;99.90;;;;;;9994606;29;20321;-88
2023/08/13 05:56:51;;;;;;;6.88;6.22;;;21.00;99.90;;;;;;10009883;29;20245;-88
2023/08/13 06:01:53;;;;;;;7.15;5.20;;;21.10;99.90;;;;;;9988876;29;20272;-88
2023/08/13 06:06:55;;;;;;;6.10;5.50;;;21.10;99.90;;;;;;9995822;29;20326;-88
2023/08/13 06:11:58;;;;;;;5.72;5.20;;;21.20;99.90;;;;;;10007325;29;20262;-88
2023/08/13 06:17:02;;;;;;;6.95;6.35;;;21.10;99.90;;;;;;10002791;29;20210;-88
2023/08/13 06:22:16;;;;;;;6.25;5.65;;;21.20;99.90;;;;;;9997055;29;20299;-88
2023/08/13 06:27:21;;;;;;;6.88;6.13;;;21.20;99.90;;;;;;9988022;29;20239;-88
2023/08/13 06:32:23;;;;;;;5.32;4.82;;;21.30;99.90;;;;;;10006313;29;20770;-88
2023/08/13 06:37:26;;;;;;;5.75;5.25;;;21.30;99.90;;;;;;9996729;29;20299;-89
2023/08/13 06:42:29;;;;;;;7.13;5.18;;;21.40;99.90;;;;;;9999170;29;20318;-87
2023/08/13 06:47:32;;;;;;;5.68;5.22;;;21.50;99.90;;;;;;10005448;29;20637;-89
2023/08/13 06:52:35;;;;;;;7.28;5.55;;;21.60;99.70;;;;;;9986341;29;20262;-88
2023/08/13 06:57:38;;;;;;;4.63;4.22;;;21.80;99.10;;;;;;10016084;29;20268;-88
2023/08/13 07:02:40;;;;;;;5.75;5.25;;;21.90;99.90;;;;;;9994235;29;20641;-89
2023/08/13 07:07:45;;;;;;;5.32;4.88;;;22.00;98.90;;;;;;10002076;29;20341;-88
2023/08/13 07:12:48;;;;;;;5.50;5.10;;;22.10;99.90;;;;;;10001107;29;20269;-88
2023/08/13 07:17:51;;;;;;;5.60;5.00;;;22.20;99.90;;;;;;10005854;29;20235;-88
2023/08/13 07:22:58;;;;;;;5.18;4.68;;;22.30;98.90;;;;;;9992426;29;20234;-86
2023/08/13 07:28:00;;;;;;;5.50;5.05;;;22.20;97.30;;;;;;10003914;29;20245;-87
2023/08/13 07:33:03;;;;;;;4.95;4.47;;;22.40;96.30;;;;;;9997545;29;20317;-88
2023/08/13 07:38:07;;;;;;;5.88;5.38;;;22.30;95.20;;;;;;10010988;29;20688;-87
2023/08/13 07:43:09;;;;;;;4.93;4.55;;;22.40;94.90;;;;;;10005443;29;20299;-87
2023/08/13 07:48:12;;;;;;;4.65;4.10;;;22.50;94.50;;;;;;9997520;29;20307;-86
2023/08/13 07:53:15;;;;;;;5.68;5.18;;;22.50;94.70;;;;;;9987448;29;20231;-87
2023/08/13 07:58:18;;;;;;;7.25;5.35;;;22.40;94.50;;;;;;9987547;29;20634;-87
2023/08/13 08:03:22;;;;;;;46.50;42.47;;;22.50;95.90;;;;;;10006397;29;20246;-87
2023/08/13 08:08:25;;;;;;;59.95;53.60;;;22.50;96.40;;;;;;10004633;29;20303;-88
2023/08/13 08:13:28;;;;;;;65.60;60.10;;;22.60;95.40;;;;;;10006906;29;20493;-88
2023/08/13 08:18:34;;;;;;;105.30;95.93;;;22.60;96.30;;;;;;9991130;29;20238;-88
2023/08/13 08:23:36;;;;;;;150.80;137.18;;;22.70;96.50;;;;;;10006744;29;20290;-88
2023/08/13 08:28:39;;;;;;;159.98;145.55;;;23.00;95.80;;;;;;10004920;29;20246;-87
2023/08/13 08:33:41;;;;;;;4.72;4.35;;;23.30;95.40;;;;;;9999960;29;20315;-86
2023/08/13 08:38:44;;;;;;;5.07;4.68;;;23.70;95.80;;;;;;10004434;29;20240;-87
2023/08/13 08:43:48;;;;;;;4.03;3.63;;;23.90;95.70;;;;;;9996954;29;20274;-87
2023/08/13 08:48:50;;;;;;;25.85;23.33;;;24.00;94.30;;;;;;10006040;29;20655;-87
2023/08/13 08:53:53;;;;;;;30.67;27.77;;;24.00;93.50;;;;;;9993562;29;20688;-87
2023/08/13 08:58:56;;;;;;;14.13;12.77;;;24.10;94.30;;;;;;10000100;29;20238;-87
2023/08/13 09:03:59;;;;;;;9.35;8.55;;;24.10;93.50;;;;;;9994334;29;20298;-86
2023/08/13 09:09:02;;;;;;;4.43;4.07;;;24.20;93.90;;;;;;10002782;29;20273;-87
2023/08/13 09:14:05;;;;;;;4.10;3.80;;;24.20;94.70;;;;;;10002692;29;20258;-87
2023/08/13 09:19:07;;;;;;;4.78;4.38;;;24.20;95.10;;;;;;9994703;29;20361;-86
2023/08/13 09:24:15;;;;;;;4.07;3.78;;;23.90;95.90;;;;;;9999714;29;20238;-86
2023/08/13 09:29:19;;;;;;;4.47;4.15;;;24.00;96.10;;;;;;9996713;29;20271;-86
2023/08/13 09:34:23;;;;;;;4.90;4.20;;;24.00;96.40;;;;;;10003119;29;20286;-87
2023/08/13 09:39:28;;;;;;;4.30;3.90;;;23.80;95.40;;;;;;9994299;29;20305;-88
2023/08/13 09:44:31;;;;;;;4.35;3.95;;;23.60;95.70;;;;;;9988259;29;20291;-87
2023/08/13 09:49:34;;;;;;;3.90;3.60;;;23.70;96.10;;;;;;10000431;29;20258;-87
2023/08/13 09:54:47;;;;;;;3.55;3.25;;;23.80;96.10;;;;;;10000249;29;20238;-86
2023/08/13 09:59:50;;;;;;;3.75;3.38;;;23.70;95.60;;;;;;10005945;29;20215;-86
2023/08/13 10:04:53;;;;;;;3.95;3.65;;;23.80;95.30;;;;;;10006188;29;20211;-85
2023/08/13 10:09:59;;;;;;;3.58;3.28;;;23.90;94.50;;;;;;10007950;29;20291;-87
2023/08/13 10:15:09;;;;;;;4.60;3.55;;;23.80;95.40;;;;;;10011424;29;20321;-86
2023/08/13 10:20:12;;;;;;;3.75;3.35;;;23.90;93.10;;;;;;9988417;29;20241;-89
2023/08/13 10:25:33;;;;;;;3.60;3.30;;;23.70;93.80;;;;;;9974674;29;20238;-88
2023/08/13 10:30:36;;;;;;;3.47;3.05;;;23.60;94.20;;;;;;9998314;29;20318;-88
2023/08/13 10:35:39;;;;;;;4.00;3.70;;;23.60;93.40;;;;;;9986431;29;20746;-88
2023/08/13 10:40:59;;;;;;;4.13;3.45;;;23.70;93.50;;;;;;10012010;29;20287;-88
2023/08/13 10:46:05;;;;;;;3.40;3.10;;;23.60;93.20;;;;;;10004234;29;20245;-87
2023/08/13 10:51:09;;;;;;;3.72;3.42;;;23.50;93.00;;;;;;10008237;29;20318;-88
2023/08/13 10:56:17;;;;;;;3.60;3.30;;;23.50;93.10;;;;;;10019793;29;20237;-89
2023/08/13 11:01:20;;;;;;;4.30;2.50;;;23.40;92.80;;;;;;9986668;29;20309;-88
2023/08/13 11:06:25;;;;;;;3.72;2.60;;;23.50;93.40;;;;;;10004338;29;20715;-89
2023/08/13 11:11:27;;;;;;;3.17;2.88;;;23.40;91.60;;;;;;10007136;29;20315;-88
2023/08/13 11:16:30;;;;;;;2.90;2.60;;;23.50;90.90;;;;;;9981486;29;20653;-87
2023/08/13 11:21:33;;;;;;;3.08;2.28;;;23.70;87.80;;;;;;10009839;29;20234;-89
2023/08/13 11:26:35;;;;;;;3.70;3.40;;;23.80;87.90;;;;;;10006536;29;20238;-89
2023/08/13 11:31:46;;;;;;;5.53;2.78;;;23.70;91.20;;;;;;9987156;29;20302;-88
2023/08/13 11:36:50;;;;;;;2.88;2.58;;;23.60;90.70;;;;;;10004656;29;20293;-88
2023/08/13 11:41:53;;;;;;;3.22;2.92;;;23.60;91.10;;;;;;9974613;29;20246;-87
2023/08/13 11:47:00;;;;;;;3.83;2.75;;;23.70;90.80;;;;;;9987324;29;20310;-89
2023/08/13 11:52:06;;;;;;;2.83;2.53;;;23.70;91.00;;;;;;10006522;29;20321;-88
2023/08/13 11:57:09;;;;;;;3.47;3.17;;;23.60;91.10;;;;;;10006223;29;20632;-89
2023/08/13 12:02:13;;;;;;;3.50;3.20;;;23.80;87.80;;;;;;10010558;29;20685;-88
2023/08/13 12:07:16;;;;;;;4.18;3.47;;;23.90;88.80;;;;;;10008728;29;20295;-88
2023/08/13 12:12:19;;;;;;;2.63;2.42;;;23.80;84.10;;;;;;9989052;29;20334;-88
2023/08/13 12:17:22;;;;;;;3.10;2.88;;;23.90;78.40;;;;;;10004685;29;20358;-89
2023/08/13 12:22:24;;;;;;;3.60;3.30;;;24.00;85.30;;;;;;9998198;29;20700;-88
2023/08/13 12:27:27;;;;;;;2.95;2.75;;;24.20;84.60;;;;;;9988588;29;20231;-89
2023/08/13 12:32:30;;;;;;;2.60;2.40;;;24.10;82.10;;;;;;10001618;29;20255;-88
2023/08/13 12:37:32;;;;;;;2.53;2.33;;;24.20;82.20;;;;;;9977918;29;20326;-89
2023/08/13 12:42:35;;;;;;;4.32;2.70;;;24.30;83.20;;;;;;10008607;29;20238;-88
2023/08/13 12:47:38;;;;;;;3.03;2.75;;;24.00;84.50;;;;;;10015164;29;20246;-88
2023/08/13 12:52:41;;;;;;;3.55;2.47;;;24.00;83.50;;;;;;10015269;29;20274;-87
2023/08/13 12:57:44;;;;;;;2.53;2.33;;;23.90;85.40;;;;;;10014648;29;20795;-88
2023/08/13 13:02:46;;;;;;;2.88;2.50;;;23.90;85.70;;;;;;10013157;29;20234;-88
2023/08/13 13:07:49;;;;;;;5.53;2.72;;;23.90;86.30;;;;;;9981152;29;20270;-88
2023/08/13 13:12:51;;;;;;;3.20;2.90;;;23.70;86.40;;;;;;9998706;29;20293;-88
2023/08/13 13:17:54;;;;;;;2.17;2.03;;;23.50;88.60;;;;;;9995902;29;20230;-88
2023/08/13 13:22:57;;;;;;;3.85;2.72;;;23.50;79.40;;;;;;10004379;29;20359;-87
2023/08/13 13:28:00;;;;;;;3.28;2.03;;;23.90;80.00;;;;;;9980290;29;20238;-87
2023/08/13 13:33:04;;;;;;;3.85;2.50;;;24.20;76.30;;;;;;9982052;29;20713;-87
2023/08/13 13:38:10;;;;;;;2.80;2.60;;;24.30;75.20;;;;;;9983491;29;20238;-87
2023/08/13 13:43:12;;;;;;;5.50;2.38;;;24.20;77.20;;;;;;9984267;29;20246;-87
2023/08/13 13:48:15;;;;;;;2.38;2.17;;;24.20;69.20;;;;;;10007652;29;20739;-88
2023/08/13 13:53:18;;;;;;;3.25;2.15;;;;;;;;;;9991302;29;20761;-87
2023/08/13 13:58:22;;;;;;;3.00;2.75;;;24.40;77.20;;;;;;9985124;29;20294;-87
2023/08/13 14:03:24;;;;;;;2.83;2.53;;;24.50;77.50;;;;;;9992247;29;20238;-88
2023/08/13 14:08:27;;;;;;;2.63;2.42;;;24.60;75.80;;;;;;9991204;29;20336;-88
2023/08/13 14:13:30;;;;;;;2.70;2.17;;;24.50;74.40;;;;;;9992561;29;20254;-88
2023/08/13 14:18:32;;;;;;;2.30;2.10;;;24.40;69.30;;;;;;9987466;29;20282;-88
2023/08/13 14:23:35;;;;;;;2.50;2.30;;;24.40;72.80;;;;;;9989214;29;20679;-88
2023/08/13 14:28:37;;;;;;;3.05;2.10;;;24.10;78.00;;;;;;10000766;29;20238;-88
2023/08/13 14:33:40;;;;;;;5.85;2.38;;;24.10;74.20;;;;;;9999920;29;20249;-88
2023/08/13 14:38:42;;;;;;;2.42;2.22;;;24.20;71.90;;;;;;9962054;29;20239;-88
2023/08/13 14:43:45;;;;;;;4.80;1.92;;;24.20;77.10;;;;;;9973919;29;20640;-88
2023/08/13 14:48:48;;;;;;;2.25;1.90;;;24.10;71.40;;;;;;9997100;29;20267;-87
2023/08/13 14:53:51;;;;;;;4.80;2.53;;;24.40;66.40;;;;;;9996364;29;20265;-88
2023/08/13 14:58:53;;;;;;;2.72;2.53;;;24.40;72.40;;;;;;9998247;29;20234;-88
2023/08/13 15:03:56;;;;;;;2.95;2.30;;;24.30;76.80;;;;;;9993231;29;20243;-88
2023/08/13 15:09:00;;;;;;;2.80;2.60;;;24.20;71.50;;;;;;9997286;29;20319;-88
2023/08/13 15:14:02;;;;;;;3.10;2.08;;;24.20;75.30;;;;;;9998452;29;20310;-88
2023/08/13 15:19:05;;;;;;;2.92;2.63;;;24.30;69.60;;;;;;10005203;29;20234;-88
2023/08/13 15:24:08;;;;;;;4.25;2.55;;;24.20;76.00;;;;;;10001921;29;20706;-88
2023/08/13 15:29:10;;;;;;;2.58;2.38;;;24.20;67.90;;;;;;10001767;29;20268;-88
2023/08/13 15:34:14;;;;;;;6.22;1.80;;;24.30;76.30;;;;;;9998856;29;21053;-87
2023/08/13 15:39:19;;;;;;;2.47;2.28;;;24.20;62.70;;;;;;10002247;29;20231;-88
2023/08/13 15:44:21;;;;;;;2.00;1.90;;;24.30;73.10;;;;;;10007644;29;20312;-88
2023/08/13 15:49:24;;;;;;;2.90;2.70;;;24.20;76.30;;;;;;9994715;29;20713;-89
2023/08/13 15:54:26;;;;;;;4.22;2.33;;;24.20;77.10;;;;;;9989529;29;20699;-88
2023/08/13 15:59:29;;;;;;;2.58;2.25;;;24.20;74.40;;;;;;9997307;29;20318;-88
2023/08/13 16:04:31;;;;;;;4.47;2.20;;;24.10;77.30;;;;;;10002652;29;20242;-88
2023/08/13 16:09:34;;;;;;;4.07;2.00;;;24.10;67.40;;;;;;9996306;29;20306;-88
2023/08/13 16:14:36;;;;;;;2.15;1.77;;;24.20;65.60;;;;;;9986856;29;20262;-88
2023/08/13 16:19:39;;;;;;;3.63;1.90;;;24.20;65.00;;;;;;9989384;29;20246;-88
2023/08/13 16:24:41;;;;;;;3.65;1.60;;;24.20;59.00;;;;;;9991388;29;20665;-86
2023/08/13 16:29:44;;;;;;;4.80;1.88;;;24.20;61.10;;;;;;9987648;29;20295;-87
2023/08/13 16:34:46;;;;;;;3.20;2.20;;;24.20;62.20;;;;;;9977818;29;20262;-87
2023/08/13 16:39:49;;;;;;;2.47;2.17;;;24.20;63.50;;;;;;9963397;29;20721;-82
2023/08/13 16:44:51;;;;;;;2.00;1.70;;;24.20;65.10;;;;;;9981386;29;20254;-82
2023/08/13 16:49:55;;;;;;;5.22;2.05;;;24.10;68.90;;;;;;9990678;29;20322;-83
2023/08/13 16:55:16;;;;;;;3.15;1.70;;;24.00;65.50;;;;;;9966430;29;20267;-83
2023/08/13 17:00:19;;;;;;;2.65;1.90;;;24.00;67.80;;;;;;9978170;29;20737;-82
2023/08/13 17:05:21;;;;;;;2.67;1.73;;;23.90;71.00;;;;;;9973173;29;20291;-83
2023/08/13 17:10:23;;;;;;;6.07;1.73;;;23.80;72.90;;;;;;9988440;29;20282;-83
2023/08/13 17:15:26;;;;;;;2.17;1.92;;;23.80;76.70;;;;;;9984848;29;20735;-83
2023/08/13 17:20:28;;;;;;;3.72;2.53;;;23.70;80.20;;;;;;10000137;29;20278;-83
2023/08/13 17:25:31;;;;;;;4.03;2.60;;;23.50;82.70;;;;;;10000660;29;20978;-83
2023/08/13 17:30:34;;;;;;;4.13;2.78;;;23.40;83.40;;;;;;10006648;29;20707;-84
2023/08/13 17:35:37;;;;;;;5.38;2.47;;;23.30;86.90;;;;;;9980972;29;20230;-85
2023/08/13 17:40:40;;;;;;;5.85;2.92;;;23.10;89.10;;;;;;9995406;29;20295;-83
2023/08/13 17:45:43;;;;;;;4.47;2.78;;;23.00;90.10;;;;;;10000201;29;20322;-84
2023/08/13 17:50:45;;;;;;;6.53;2.10;;;22.70;90.40;;;;;;9993664;29;20238;-83
2023/08/13 17:55:48;;;;;;;4.82;3.05;;;22.40;88.60;;;;;;9993643;29;20234;-84
2023/08/13 18:00:51;;;;;;;7.55;2.38;;;22.30;92.60;;;;;;9963796;29;20279;-84
2023/08/13 18:05:53;;;;;;;5.20;2.58;;;22.10;91.90;;;;;;9973937;29;20258;-84
2023/08/13 18:10:56;;;;;;;5.45;2.95;;;22.00;94.30;;;;;;9982774;29;20226;-84
2023/08/13 18:16:01;;;;;;;5.13;2.50;;;21.90;95.50;;;;;;9982026;29;20690;-84
2023/08/13 18:21:03;;;;;;;5.80;2.50;;;21.70;95.80;;;;;;9981681;29;20708;-85
2023/08/13 18:26:06;;;;;;;11.18;3.22;;;21.50;96.30;;;;;;9998673;29;20238;-84
2023/08/13 18:31:09;;;;;;;13.93;2.88;;;21.40;96.20;;;;;;9984368;29;20713;-84
2023/08/13 18:36:13;;;;;;;6.75;2.47;;;21.20;97.00;;;;;;9969818;29;20307;-84
2023/08/13 18:41:15;;;;;;;8.13;2.53;;;21.10;98.00;;;;;;9972940;29;20246;-84
2023/08/13 18:46:18;;;;;;;7.13;2.75;;;20.80;98.30;;;;;;9981012;29;20250;-84
2023/08/13 18:51:21;;;;;;;4.13;2.65;;;20.60;99.10;;;;;;9974461;29;20315;-85
2023/08/13 18:56:23;;;;;;;14.20;3.63;;;20.50;99.90;;;;;;9983740;29;20236;-84
2023/08/13 19:01:27;;;;;;;4.97;2.75;;;20.10;99.70;;;;;;9976972;29;20242;-84
2023/08/13 19:06:29;;;;;;;10.93;3.83;;;19.80;99.90;;;;;;9982677;29;20263;-84
2023/08/13 19:11:32;;;;;;;8.60;2.00;;;19.80;99.90;;;;;;9988200;29;20290;-84
2023/08/13 19:16:35;;;;;;;12.65;3.05;;;19.70;99.90;;;;;;9984777;29;20246;-84
2023/08/13 19:21:37;;;;;;;5.80;2.30;;;19.70;99.90;;;;;;9997630;29;20306;-84
2023/08/13 19:26:40;;;;;;;18.40;3.15;;;19.60;99.90;;;;;;9965542;29;20234;-85
2023/08/13 19:31:42;;;;;;;18.80;4.63;;;19.50;99.90;;;;;;9991758;29;20265;-84
2023/08/13 19:42:28;;;;;;;9.05;3.95;;;19.50;99.90;;;;;;9588859;23;10002672;-84
2023/08/13 19:47:31;;;;;;;8.75;2.53;;;19.60;99.90;;;;;;9698734;29;10000064;-84
2023/08/13 19:52:33;;;;;;;17.48;3.25;;;19.50;99.90;;;;;;10031674;29;20286;-84
2023/08/13 19:57:36;;;;;;;15.73;4.47;;;19.50;99.90;;;;;;10032993;29;20237;-84
2023/08/13 20:02:39;;;;;;;12.88;4.63;;;19.60;99.90;;;;;;10043454;29;20315;-85
2023/08/13 20:07:42;;;;;;;11.98;3.75;;;19.40;99.90;;;;;;10048077;29;20298;-84
2023/08/13 20:12:45;;;;;;;11.95;3.90;;;19.30;99.90;;;;;;9703227;29;10000292;-84
2023/08/13 20:17:50;;;;;;;16.83;4.93;;;19.40;99.90;;;;;;10053306;29;20284;-84
2023/08/13 20:22:53;;;;;;;4.40;2.53;;;19.30;99.90;;;;;;10038507;29;20233;-84
2023/08/13 20:27:55;;;;;;;7.68;3.03;;;19.30;99.90;;;;;;10041260;29;20837;-84
2023/08/13 20:32:58;;;;;;;16.50;5.20;;;19.40;99.90;;;;;;10033540;29;20340;-85
2023/08/13 20:38:01;;;;;;;3.75;2.72;;;19.30;99.90;;;;;;10036122;29;20690;-84
2023/08/13 20:43:03;;;;;;;10.23;3.75;;;19.30;99.90;;;;;;10044940;29;20265;-84
2023/08/13 20:48:07;;;;;;;17.10;4.57;;;19.20;99.90;;;;;;10045571;29;20325;-84
2023/08/13 20:53:10;;;;;;;22.92;4.18;;;19.30;99.90;;;;;;10032806;29;20261;-84
2023/08/13 20:58:13;;;;;;;18.60;4.75;;;19.20;99.90;;;;;;10032419;29;20238;-84
2023/08/13 21:03:16;;;;;;;8.30;4.00;;;19.20;99.90;;;;;;10042585;29;20237;-84
2023/08/13 21:08:19;;;;;;;13.95;4.28;;;19.10;99.90;;;;;;10034690;29;20685;-85
2023/08/13 21:13:22;;;;;;;13.07;4.78;;;19.20;99.90;;;;;;10030450;29;20257;-84
2023/08/13 21:18:24;;;;;;;9.65;3.72;;;19.20;99.90;;;;;;10043963;29;20304;-84
2023/08/13 21:23:27;;;;;;;10.93;3.50;;;19.30;99.90;;;;;;10036321;29;20245;-85
2023/08/13 21:28:29;;;;;;;6.88;3.00;;;19.40;99.90;;;;;;10025775;29;20289;-84
2023/08/13 21:33:32;;;;;;;19.58;5.63;;;19.50;99.90;;;;;;10030984;29;20266;-84
2023/08/13 21:38:35;;;;;;;16.83;6.65;;;19.40;99.90;;;;;;10026219;29;20688;-85
2023/08/13 21:43:37;;;;;;;12.55;5.32;;;19.30;99.90;;;;;;10032699;29;20237;-84
2023/08/13 21:48:40;;;;;;;11.10;6.07;;;19.30;99.90;;;;;;10036634;29;20233;-84
2023/08/13 21:53:46;;;;;;;6.97;2.63;;;19.40;99.90;;;;;;10034624;29;20359;-84
2023/08/13 21:58:48;;;;;;;4.30;2.75;;;19.40;99.90;;;;;;10035485;29;20258;-84
2023/08/13 22:03:51;;;;;;;16.58;4.40;;;19.60;99.90;;;;;;10025739;29;20659;-84
2023/08/13 22:08:53;;;;;;;8.85;4.15;;;19.60;99.90;;;;;;10045713;29;20245;-85
2023/08/13 22:13:56;;;;;;;14.95;5.72;;;19.60;99.90;;;;;;10037688;29;20260;-84
2023/08/13 22:18:58;;;;;;;9.00;4.93;;;19.60;99.90;;;;;;10034121;29;20233;-85
2023/08/13 22:24:01;;;;;;;9.68;3.95;;;19.60;99.90;;;;;;10029541;29;20956;-85
2023/08/13 22:29:06;;;;;;;7.07;3.38;;;19.50;99.90;;;;;;10035887;29;20245;-85
2023/08/13 22:34:08;;;;;;;7.78;4.43;;;19.60;99.90;;;;;;10043293;29;20321;-85
2023/08/13 22:39:11;;;;;;;6.65;4.47;;;19.60;99.90;;;;;;10051985;29;20262;-85
2023/08/13 22:44:14;;;;;;;11.15;4.10;;;19.60;99.90;;;;;;10047614;29;20241;-84
2023/08/13 22:49:33;;;;;;;9.25;5.45;;;19.70;99.90;;;;;;10029821;29;20309;-85
2023/08/13 22:54:36;;;;;;;7.28;3.65;;;19.50;99.90;;;;;;10016202;29;20269;-85
2023/08/13 22:59:39;;;;;;;2.78;1.98;;;19.30;99.90;;;;;;10033015;29;20230;-85
2023/08/13 23:04:41;;;;;;;5.55;3.72;;;19.50;99.90;;;;;;10028888;29;20253;-85
2023/08/13 23:09:44;;;;;;;6.43;4.22;;;19.70;99.90;;;;;;10062871;29;20245;-85
2023/08/13 23:14:46;;;;;;;8.88;4.35;;;19.70;99.90;;;;;;10045648;29;20265;-86
2023/08/13 23:19:49;;;;;;;8.27;4.57;;;19.60;99.90;;;;;;10032565;29;20233;-85
2023/08/13 23:24:51;;;;;;;8.63;4.85;;;19.50;99.90;;;;;;10047728;29;20249;-86
2023/08/13 23:29:54;;;;;;;11.18;4.00;;;19.50;99.90;;;;;;10022935;29;20384;-86
2023/08/13 23:34:57;;;;;;;3.88;2.20;;;19.30;99.90;;;;;;10030706;29;20291;-85
2023/08/13 23:39:59;;;;;;;10.15;4.15;;;19.30;99.90;;;;;;10056551;29;20269;-86
2023/08/13 23:45:03;;;;;;;5.05;3.67;;;19.30;99.90;;;;;;10043378;29;20242;-85
2023/08/13 23:50:06;;;;;;;6.15;2.78;;;19.30;99.90;;;;;;10053170;29;20305;-85
2023/08/13 23:55:09;;;;;;;6.38;3.38;;;19.30;99.90;;;;;;10038747;29;20254;-85
